sensor_id;sensor_type;location;lat;lon;timestamp;temperature;humidity
8095;DHT22;4090;49.270;8.696;2023-10-09T00:01:56;17.20;99.90
8095;DHT22;4090;49.270;8.696;2023-10-09T00:04:39;17.20;99.90
8095;DHT22;4090;49.270;8.696;2023-10-09T00:07:25;17.20;99.90
8095;DHT22;4090;49.270;8.696;2023-10-09T00:10:08;17.20;99.90
8095;DHT22;4090;49.270;8.696;2023-10-09T00:12:53;17.20;99.90
8095;DHT22;4090;49.270;8.696;2023-10-09T00:15:35;17.10;99.90
8095;DHT22;4090;49.270;8.696;2023-10-09T00:18:18;17.10;99.90
8095;DHT22;4090;49.270;8.696;2023-10-09T00:21:14;17.10;99.90
8095;DHT22;4090;49.270;8.696;2023-10-09T00:24:01;17.10;99.90
8095;DHT22;4090;49.270;8.696;2023-10-09T00:26:46;17.00;99.90
8095;DHT22;4090;49.270;8.696;2023-10-09T00:29:28;17.10;99.90
8095;DHT22;4090;49.270;8.696;2023-10-09T00:32:16;17.00;99.90
8095;DHT22;4090;49.270;8.696;2023-10-09T00:35:00;17.00;99.90
8095;DHT22;4090;49.270;8.696;2023-10-09T00:38:02;17.00;99.90
8095;DHT22;4090;49.270;8.696;2023-10-09T00:40:48;16.90;99.90
8095;DHT22;4090;49.270;8.696;2023-10-09T00:43:38;16.90;99.90
8095;DHT22;4090;49.270;8.696;2023-10-09T00:46:23;16.90;99.90
8095;DHT22;4090;49.270;8.696;2023-10-09T00:49:05;16.90;99.90
8095;DHT22;4090;49.270;8.696;2023-10-09T00:51:52;16.90;99.90
8095;DHT22;4090;49.270;8.696;2023-10-09T00:54:37;17.00;99.90
8095;DHT22;4090;49.270;8.696;2023-10-09T00:57:22;16.90;99.90
8095;DHT22;4090;49.270;8.696;2023-10-09T01:00:06;16.90;99.90
8095;DHT22;4090;49.270;8.696;2023-10-09T01:03:04;16.90;99.90
8095;DHT22;4090;49.270;8.696;2023-10-09T01:06:01;16.90;99.90
8095;DHT22;4090;49.270;8.696;2023-10-09T01:08:58;16.90;99.90
8095;DHT22;4090;49.270;8.696;2023-10-09T01:11:50;16.90;99.90
8095;DHT22;4090;49.270;8.696;2023-10-09T01:14:45;16.90;99.90
8095;DHT22;4090;49.270;8.696;2023-10-09T01:17:33;16.90;99.90
8095;DHT22;4090;49.270;8.696;2023-10-09T01:20:22;16.90;99.90
8095;DHT22;4090;49.270;8.696;2023-10-09T01:23:12;16.90;99.90
8095;DHT22;4090;49.270;8.696;2023-10-09T01:25:58;17.00;99.90
8095;DHT22;4090;49.270;8.696;2023-10-09T01:28:54;17.00;99.90
8095;DHT22;4090;49.270;8.696;2023-10-09T01:31:38;17.00;99.90
8095;DHT22;4090;49.270;8.696;2023-10-09T01:34:25;17.00;99.90
8095;DHT22;4090;49.270;8.696;2023-10-09T01:37:20;17.00;99.90
8095;DHT22;4090;49.270;8.696;2023-10-09T01:40:06;17.00;99.90
8095;DHT22;4090;49.270;8.696;2023-10-09T01:43:08;17.00;99.90
8095;DHT22;4090;49.270;8.696;2023-10-09T01:45:50;17.00;99.90
8095;DHT22;4090;49.270;8.696;2023-10-09T01:48:32;17.00;99.90
8095;DHT22;4090;49.270;8.696;2023-10-09T01:51:20;17.00;99.90
8095;DHT22;4090;49.270;8.696;2023-10-09T01:54:02;17.00;99.90
8095;DHT22;4090;49.270;8.696;2023-10-09T01:56:45;17.00;99.90
8095;DHT22;4090;49.270;8.696;2023-10-09T01:59:28;17.00;99.90
8095;DHT22;4090;49.270;8.696;2023-10-09T02:02:13;17.00;99.90
8095;DHT22;4090;49.270;8.696;2023-10-09T02:05:07;17.10;99.90
8095;DHT22;4090;49.270;8.696;2023-10-09T02:08:05;17.10;99.90
8095;DHT22;4090;49.270;8.696;2023-10-09T02:10:53;17.10;99.90
8095;DHT22;4090;49.270;8.696;2023-10-09T02:13:38;17.10;99.90
8095;DHT22;4090;49.270;8.696;2023-10-09T02:16:22;17.10;99.90
8095;DHT22;4090;49.270;8.696;2023-10-09T02:19:10;17.10;99.90
8095;DHT22;4090;49.270;8.696;2023-10-09T02:22:11;17.10;99.90
8095;DHT22;4090;49.270;8.696;2023-10-09T02:24:53;17.10;99.90
8095;DHT22;4090;49.270;8.696;2023-10-09T02:27:39;17.10;99.90
8095;DHT22;4090;49.270;8.696;2023-10-09T02:30:28;17.10;99.90
8095;DHT22;4090;49.270;8.696;2023-10-09T02:33:11;17.10;99.90
8095;DHT22;4090;49.270;8.696;2023-10-09T02:35:53;17.10;99.90
8095;DHT22;4090;49.270;8.696;2023-10-09T02:38:35;17.10;99.90
8095;DHT22;4090;49.270;8.696;2023-10-09T02:41:18;17.10;99.90
8095;DHT22;4090;49.270;8.696;2023-10-09T02:44:03;17.10;99.90
8095;DHT22;4090;49.270;8.696;2023-10-09T02:46:53;17.10;99.90
8095;DHT22;4090;49.270;8.696;2023-10-09T02:49:38;17.10;99.90
8095;DHT22;4090;49.270;8.696;2023-10-09T02:52:20;17.10;99.90
8095;DHT22;4090;49.270;8.696;2023-10-09T02:55:06;17.10;99.90
8095;DHT22;4090;49.270;8.696;2023-10-09T02:58:07;17.10;99.90
8095;DHT22;4090;49.270;8.696;2023-10-09T03:01:00;17.10;99.90
8095;DHT22;4090;49.270;8.696;2023-10-09T03:03:44;17.10;99.90
8095;DHT22;4090;49.270;8.696;2023-10-09T03:06:26;17.10;99.90
8095;DHT22;4090;49.270;8.696;2023-10-09T03:09:11;17.10;99.90
8095;DHT22;4090;49.270;8.696;2023-10-09T03:11:59;17.10;99.90
8095;DHT22;4090;49.270;8.696;2023-10-09T03:14:44;17.10;99.90
8095;DHT22;4090;49.270;8.696;2023-10-09T03:17:27;17.10;99.90
8095;DHT22;4090;49.270;8.696;2023-10-09T03:20:11;17.10;99.90
8095;DHT22;4090;49.270;8.696;2023-10-09T03:22:54;17.10;99.90
8095;DHT22;4090;49.270;8.696;2023-10-09T03:25:36;17.10;99.90
8095;DHT22;4090;49.270;8.696;2023-10-09T03:28:18;17.10;99.90
8095;DHT22;4090;49.270;8.696;2023-10-09T03:31:00;17.10;99.90
8095;DHT22;4090;49.270;8.696;2023-10-09T03:33:43;17.20;99.90
8095;DHT22;4090;49.270;8.696;2023-10-09T03:36:26;17.20;99.90
8095;DHT22;4090;49.270;8.696;2023-10-09T03:39:09;17.20;99.90
8095;DHT22;4090;49.270;8.696;2023-10-09T03:42:05;17.20;99.90
8095;DHT22;4090;49.270;8.696;2023-10-09T03:44:52;17.20;99.90
8095;DHT22;4090;49.270;8.696;2023-10-09T03:47:34;17.20;99.90
8095;DHT22;4090;49.270;8.696;2023-10-09T03:50:16;17.20;99.90
8095;DHT22;4090;49.270;8.696;2023-10-09T03:53:08;17.20;99.90
8095;DHT22;4090;49.270;8.696;2023-10-09T03:55:53;17.20;99.90
8095;DHT22;4090;49.270;8.696;2023-10-09T03:58:35;17.20;99.90
8095;DHT22;4090;49.270;8.696;2023-10-09T04:01:18;17.20;99.90
8095;DHT22;4090;49.270;8.696;2023-10-09T04:04:08;17.20;99.90
8095;DHT22;4090;49.270;8.696;2023-10-09T04:06:54;17.20;99.90
8095;DHT22;4090;49.270;8.696;2023-10-09T04:09:37;17.10;99.90
8095;DHT22;4090;49.270;8.696;2023-10-09T04:12:25;17.10;99.90
8095;DHT22;4090;49.270;8.696;2023-10-09T04:15:11;17.10;99.90
8095;DHT22;4090;49.270;8.696;2023-10-09T04:17:56;17.10;99.90
8095;DHT22;4090;49.270;8.696;2023-10-09T04:20:38;17.10;99.90
8095;DHT22;4090;49.270;8.696;2023-10-09T04:23:48;17.00;99.90
8095;DHT22;4090;49.270;8.696;2023-10-09T04:26:45;17.00;99.90
8095;DHT22;4090;49.270;8.696;2023-10-09T04:29:27;17.00;99.90
8095;DHT22;4090;49.270;8.696;2023-10-09T04:32:18;17.00;99.90
8095;DHT22;4090;49.270;8.696;2023-10-09T04:35:00;17.00;99.90
8095;DHT22;4090;49.270;8.696;2023-10-09T04:38:01;17.00;99.90
8095;DHT22;4090;49.270;8.696;2023-10-09T04:40:46;17.00;99.90
8095;DHT22;4090;49.270;8.696;2023-10-09T04:43:33;17.00;99.90
8095;DHT22;4090;49.270;8.696;2023-10-09T04:46:15;17.00;99.90
8095;DHT22;4090;49.270;8.696;2023-10-09T04:49:04;17.00;99.90
8095;DHT22;4090;49.270;8.696;2023-10-09T04:52:07;17.00;99.90
8095;DHT22;4090;49.270;8.696;2023-10-09T04:55:00;17.00;99.90
8095;DHT22;4090;49.270;8.696;2023-10-09T04:57:55;17.00;99.90
8095;DHT22;4090;49.270;8.696;2023-10-09T05:00:51;17.00;99.90
8095;DHT22;4090;49.270;8.696;2023-10-09T05:03:47;17.00;99.90
8095;DHT22;4090;49.270;8.696;2023-10-09T05:06:37;16.90;99.90
8095;DHT22;4090;49.270;8.696;2023-10-09T05:09:33;17.00;99.90
8095;DHT22;4090;49.270;8.696;2023-10-09T05:12:35;16.90;99.90
8095;DHT22;4090;49.270;8.696;2023-10-09T05:15:21;16.90;99.90
8095;DHT22;4090;49.270;8.696;2023-10-09T05:18:08;16.90;99.90
8095;DHT22;4090;49.270;8.696;2023-10-09T05:20:56;16.90;99.90
8095;DHT22;4090;49.270;8.696;2023-10-09T05:23:46;16.90;99.90
8095;DHT22;4090;49.270;8.696;2023-10-09T05:26:50;16.90;99.90
8095;DHT22;4090;49.270;8.696;2023-10-09T05:29:32;16.90;99.90
8095;DHT22;4090;49.270;8.696;2023-10-09T05:32:28;16.80;99.90
8095;DHT22;4090;49.270;8.696;2023-10-09T05:35:17;16.90;99.90
8095;DHT22;4090;49.270;8.696;2023-10-09T05:38:10;16.90;99.90
8095;DHT22;4090;49.270;8.696;2023-10-09T05:41:04;16.90;99.90
8095;DHT22;4090;49.270;8.696;2023-10-09T05:44:00;16.90;99.90
8095;DHT22;4090;49.270;8.696;2023-10-09T05:46:59;16.90;99.90
8095;DHT22;4090;49.270;8.696;2023-10-09T05:49:59;16.90;99.90
8095;DHT22;4090;49.270;8.696;2023-10-09T05:52:59;16.80;99.90
8095;DHT22;4090;49.270;8.696;2023-10-09T05:56:12;16.80;99.90
8095;DHT22;4090;49.270;8.696;2023-10-09T05:59:11;16.80;99.90
8095;DHT22;4090;49.270;8.696;2023-10-09T06:02:07;16.80;99.90
8095;DHT22;4090;49.270;8.696;2023-10-09T06:05:07;16.80;99.90
8095;DHT22;4090;49.270;8.696;2023-10-09T06:08:10;16.80;99.90
8095;DHT22;4090;49.270;8.696;2023-10-09T06:10:53;16.80;99.90
8095;DHT22;4090;49.270;8.696;2023-10-09T06:13:46;16.80;99.90
8095;DHT22;4090;49.270;8.696;2023-10-09T06:16:28;16.80;99.90
8095;DHT22;4090;49.270;8.696;2023-10-09T06:19:23;16.80;99.90
8095;DHT22;4090;49.270;8.696;2023-10-09T06:22:08;16.70;99.90
8095;DHT22;4090;49.270;8.696;2023-10-09T06:25:35;16.70;99.90
8095;DHT22;4090;49.270;8.696;2023-10-09T06:28:20;16.70;99.90
8095;DHT22;4090;49.270;8.696;2023-10-09T06:31:13;16.70;99.90
8095;DHT22;4090;49.270;8.696;2023-10-09T06:34:10;16.70;99.90
8095;DHT22;4090;49.270;8.696;2023-10-09T06:36:56;16.70;99.90
8095;DHT22;4090;49.270;8.696;2023-10-09T06:39:43;16.70;99.90
8095;DHT22;4090;49.270;8.696;2023-10-09T06:42:44;16.70;99.90
8095;DHT22;4090;49.270;8.696;2023-10-09T06:45:35;16.70;99.90
8095;DHT22;4090;49.270;8.696;2023-10-09T06:48:25;16.70;99.90
8095;DHT22;4090;49.270;8.696;2023-10-09T06:51:22;16.70;99.90
8095;DHT22;4090;49.270;8.696;2023-10-09T06:54:21;16.70;99.90
8095;DHT22;4090;49.270;8.696;2023-10-09T06:57:06;16.70;99.90
8095;DHT22;4090;49.270;8.696;2023-10-09T06:59:56;16.70;99.90
8095;DHT22;4090;49.270;8.696;2023-10-09T07:02:55;16.70;99.90
8095;DHT22;4090;49.270;8.696;2023-10-09T07:05:38;16.70;99.90
8095;DHT22;4090;49.270;8.696;2023-10-09T07:08:41;16.70;99.90
8095;DHT22;4090;49.270;8.696;2023-10-09T07:11:39;16.70;99.90
8095;DHT22;4090;49.270;8.696;2023-10-09T07:14:39;16.70;99.90
8095;DHT22;4090;49.270;8.696;2023-10-09T07:17:40;16.70;99.90
8095;DHT22;4090;49.270;8.696;2023-10-09T07:20:26;16.70;99.90
8095;DHT22;4090;49.270;8.696;2023-10-09T07:23:26;16.70;99.90
8095;DHT22;4090;49.270;8.696;2023-10-09T07:26:13;16.70;99.90
8095;DHT22;4090;49.270;8.696;2023-10-09T07:29:05;16.70;99.90
8095;DHT22;4090;49.270;8.696;2023-10-09T07:32:02;16.70;99.90
8095;DHT22;4090;49.270;8.696;2023-10-09T07:34:54;16.70;99.90
8095;DHT22;4090;49.270;8.696;2023-10-09T07:37:39;16.70;99.90
8095;DHT22;4090;49.270;8.696;2023-10-09T07:40:22;16.70;99.90
8095;DHT22;4090;49.270;8.696;2023-10-09T07:43:12;16.80;99.90
8095;DHT22;4090;49.270;8.696;2023-10-09T07:45:57;16.80;99.90
8095;DHT22;4090;49.270;8.696;2023-10-09T07:49:05;16.80;99.90
8095;DHT22;4090;49.270;8.696;2023-10-09T07:51:51;16.80;99.90
8095;DHT22;4090;49.270;8.696;2023-10-09T07:54:34;16.80;99.90
8095;DHT22;4090;49.270;8.696;2023-10-09T07:57:17;16.80;99.90
8095;DHT22;4090;49.270;8.696;2023-10-09T07:59:59;16.80;99.90
8095;DHT22;4090;49.270;8.696;2023-10-09T08:02:53;16.90;99.90
8095;DHT22;4090;49.270;8.696;2023-10-09T08:05:43;16.90;99.90
8095;DHT22;4090;49.270;8.696;2023-10-09T08:08:27;16.90;99.90
8095;DHT22;4090;49.270;8.696;2023-10-09T08:11:25;16.90;99.90
8095;DHT22;4090;49.270;8.696;2023-10-09T08:14:36;16.90;99.90
8095;DHT22;4090;49.270;8.696;2023-10-09T08:17:26;16.90;99.90
8095;DHT22;4090;49.270;8.696;2023-10-09T08:20:10;16.90;99.90
8095;DHT22;4090;49.270;8.696;2023-10-09T08:22:53;16.90;99.90
8095;DHT22;4090;49.270;8.696;2023-10-09T08:25:37;16.90;99.90
8095;DHT22;4090;49.270;8.696;2023-10-09T08:28:37;17.00;99.90
8095;DHT22;4090;49.270;8.696;2023-10-09T08:31:23;17.00;99.90
8095;DHT22;4090;49.270;8.696;2023-10-09T08:34:25;17.00;99.90
8095;DHT22;4090;49.270;8.696;2023-10-09T08:37:06;17.00;99.90
8095;DHT22;4090;49.270;8.696;2023-10-09T08:39:53;17.00;99.90
8095;DHT22;4090;49.270;8.696;2023-10-09T08:42:36;17.10;99.90
8095;DHT22;4090;49.270;8.696;2023-10-09T08:45:21;17.10;99.90
8095;DHT22;4090;49.270;8.696;2023-10-09T08:48:06;17.10;99.90
8095;DHT22;4090;49.270;8.696;2023-10-09T08:50:49;17.10;99.90
8095;DHT22;4090;49.270;8.696;2023-10-09T08:53:31;17.10;99.90
8095;DHT22;4090;49.270;8.696;2023-10-09T08:56:14;17.10;99.90
8095;DHT22;4090;49.270;8.696;2023-10-09T08:59:04;17.20;99.90
8095;DHT22;4090;49.270;8.696;2023-10-09T09:01:46;17.20;99.90
8095;DHT22;4090;49.270;8.696;2023-10-09T09:04:39;17.20;99.90
8095;DHT22;4090;49.270;8.696;2023-10-09T09:07:25;17.20;99.90
8095;DHT22;4090;49.270;8.696;2023-10-09T09:10:09;17.30;99.90
8095;DHT22;4090;49.270;8.696;2023-10-09T09:12:59;17.30;99.90
8095;DHT22;4090;49.270;8.696;2023-10-09T09:15:46;17.30;99.90
8095;DHT22;4090;49.270;8.696;2023-10-09T09:18:28;17.40;99.90
8095;DHT22;4090;49.270;8.696;2023-10-09T09:21:20;17.40;99.90
8095;DHT22;4090;49.270;8.696;2023-10-09T09:24:03;17.50;99.90
8095;DHT22;4090;49.270;8.696;2023-10-09T09:27:00;17.50;99.90
8095;DHT22;4090;49.270;8.696;2023-10-09T09:29:50;17.50;99.90
8095;DHT22;4090;49.270;8.696;2023-10-09T09:32:36;17.50;99.90
8095;DHT22;4090;49.270;8.696;2023-10-09T09:35:19;17.60;99.90
8095;DHT22;4090;49.270;8.696;2023-10-09T09:38:01;17.60;99.90
8095;DHT22;4090;49.270;8.696;2023-10-09T09:40:46;17.60;99.90
8095;DHT22;4090;49.270;8.696;2023-10-09T09:43:36;17.70;99.90
8095;DHT22;4090;49.270;8.696;2023-10-09T09:46:21;17.80;99.90
8095;DHT22;4090;49.270;8.696;2023-10-09T09:49:11;17.80;99.90
8095;DHT22;4090;49.270;8.696;2023-10-09T09:52:00;17.80;99.90
8095;DHT22;4090;49.270;8.696;2023-10-09T09:54:50;17.80;99.90
8095;DHT22;4090;49.270;8.696;2023-10-09T09:57:33;17.90;99.90
8095;DHT22;4090;49.270;8.696;2023-10-09T10:00:22;17.90;99.90
8095;DHT22;4090;49.270;8.696;2023-10-09T10:03:12;17.90;99.90
8095;DHT22;4090;49.270;8.696;2023-10-09T10:05:56;18.00;99.90
8095;DHT22;4090;49.270;8.696;2023-10-09T10:08:41;18.00;99.90
8095;DHT22;4090;49.270;8.696;2023-10-09T10:11:42;18.00;99.90
8095;DHT22;4090;49.270;8.696;2023-10-09T10:14:30;18.00;99.90
8095;DHT22;4090;49.270;8.696;2023-10-09T10:21:14;18.10;99.90
8095;DHT22;4090;49.270;8.696;2023-10-09T10:23:58;18.20;99.90
8095;DHT22;4090;49.270;8.696;2023-10-09T10:26:47;18.20;99.90
8095;DHT22;4090;49.270;8.696;2023-10-09T10:29:34;18.30;99.90
8095;DHT22;4090;49.270;8.696;2023-10-09T10:32:19;18.30;99.90
8095;DHT22;4090;49.270;8.696;2023-10-09T10:35:01;18.30;99.90
8095;DHT22;4090;49.270;8.696;2023-10-09T10:37:48;18.30;99.90
8095;DHT22;4090;49.270;8.696;2023-10-09T10:40:32;18.40;99.90
8095;DHT22;4090;49.270;8.696;2023-10-09T10:43:21;18.30;99.90
8095;DHT22;4090;49.270;8.696;2023-10-09T10:46:14;18.40;99.90
8095;DHT22;4090;49.270;8.696;2023-10-09T10:49:05;18.50;99.90
8095;DHT22;4090;49.270;8.696;2023-10-09T10:51:57;18.50;99.90
8095;DHT22;4090;49.270;8.696;2023-10-09T10:55:11;18.50;99.90
8095;DHT22;4090;49.270;8.696;2023-10-09T10:58:19;18.50;99.90
8095;DHT22;4090;49.270;8.696;2023-10-09T11:01:04;18.50;99.90
8095;DHT22;4090;49.270;8.696;2023-10-09T11:03:57;18.60;99.90
8095;DHT22;4090;49.270;8.696;2023-10-09T11:06:38;18.50;99.90
8095;DHT22;4090;49.270;8.696;2023-10-09T11:09:22;18.50;99.90
8095;DHT22;4090;49.270;8.696;2023-10-09T11:12:17;18.60;99.90
8095;DHT22;4090;49.270;8.696;2023-10-09T11:15:05;18.60;99.90
8095;DHT22;4090;49.270;8.696;2023-10-09T11:17:57;18.60;99.90
8095;DHT22;4090;49.270;8.696;2023-10-09T11:20:48;18.60;99.90
8095;DHT22;4090;49.270;8.696;2023-10-09T11:23:37;18.60;99.90
8095;DHT22;4090;49.270;8.696;2023-10-09T11:26:20;18.70;99.90
8095;DHT22;4090;49.270;8.696;2023-10-09T11:29:11;18.70;99.90
8095;DHT22;4090;49.270;8.696;2023-10-09T11:31:58;18.70;99.90
8095;DHT22;4090;49.270;8.696;2023-10-09T11:34:40;18.70;99.90
8095;DHT22;4090;49.270;8.696;2023-10-09T11:37:26;18.80;99.90
8095;DHT22;4090;49.270;8.696;2023-10-09T11:40:29;18.90;99.90
8095;DHT22;4090;49.270;8.696;2023-10-09T11:43:23;18.90;99.90
8095;DHT22;4090;49.270;8.696;2023-10-09T11:46:26;18.90;99.90
8095;DHT22;4090;49.270;8.696;2023-10-09T11:49:28;19.10;99.90
8095;DHT22;4090;49.270;8.696;2023-10-09T11:52:24;19.10;99.90
8095;DHT22;4090;49.270;8.696;2023-10-09T11:55:16;19.30;99.90
8095;DHT22;4090;49.270;8.696;2023-10-09T11:57:58;19.40;99.90
8095;DHT22;4090;49.270;8.696;2023-10-09T12:00:40;19.40;99.90
8095;DHT22;4090;49.270;8.696;2023-10-09T12:03:29;19.50;99.90
8095;DHT22;4090;49.270;8.696;2023-10-09T12:06:11;19.50;99.90
8095;DHT22;4090;49.270;8.696;2023-10-09T12:08:55;19.50;99.90
8095;DHT22;4090;49.270;8.696;2023-10-09T12:11:38;19.50;99.90
8095;DHT22;4090;49.270;8.696;2023-10-09T12:14:21;19.60;99.90
8095;DHT22;4090;49.270;8.696;2023-10-09T12:17:05;19.70;99.90
8095;DHT22;4090;49.270;8.696;2023-10-09T12:19:49;19.70;99.90
8095;DHT22;4090;49.270;8.696;2023-10-09T12:22:31;19.70;99.90
8095;DHT22;4090;49.270;8.696;2023-10-09T12:25:14;19.80;99.90
8095;DHT22;4090;49.270;8.696;2023-10-09T12:27:55;19.90;99.90
8095;DHT22;4090;49.270;8.696;2023-10-09T12:30:38;19.90;99.90
8095;DHT22;4090;49.270;8.696;2023-10-09T12:33:21;20.00;99.90
8095;DHT22;4090;49.270;8.696;2023-10-09T12:36:13;20.20;99.90
8095;DHT22;4090;49.270;8.696;2023-10-09T12:39:00;20.20;99.90
8095;DHT22;4090;49.270;8.696;2023-10-09T12:41:42;20.30;99.90
8095;DHT22;4090;49.270;8.696;2023-10-09T12:44:24;20.30;99.90
8095;DHT22;4090;49.270;8.696;2023-10-09T12:47:08;20.30;99.90
8095;DHT22;4090;49.270;8.696;2023-10-09T12:49:52;20.40;99.90
8095;DHT22;4090;49.270;8.696;2023-10-09T12:52:36;20.50;99.90
8095;DHT22;4090;49.270;8.696;2023-10-09T12:55:18;20.60;99.90
8095;DHT22;4090;49.270;8.696;2023-10-09T12:58:01;20.60;99.90
8095;DHT22;4090;49.270;8.696;2023-10-09T13:00:46;20.60;99.90
8095;DHT22;4090;49.270;8.696;2023-10-09T13:03:30;20.60;99.90
8095;DHT22;4090;49.270;8.696;2023-10-09T13:06:13;20.60;99.90
8095;DHT22;4090;49.270;8.696;2023-10-09T13:08:57;20.70;99.90
8095;DHT22;4090;49.270;8.696;2023-10-09T13:11:40;20.80;99.90
8095;DHT22;4090;49.270;8.696;2023-10-09T13:14:23;20.90;99.90
8095;DHT22;4090;49.270;8.696;2023-10-09T13:17:06;20.90;99.90
8095;DHT22;4090;49.270;8.696;2023-10-09T13:19:50;21.00;99.90
8095;DHT22;4090;49.270;8.696;2023-10-09T13:22:32;21.00;99.90
8095;DHT22;4090;49.270;8.696;2023-10-09T13:25:16;21.10;99.90
8095;DHT22;4090;49.270;8.696;2023-10-09T13:28:04;21.20;99.90
8095;DHT22;4090;49.270;8.696;2023-10-09T13:30:46;21.30;99.90
8095;DHT22;4090;49.270;8.696;2023-10-09T13:33:31;21.40;99.90
8095;DHT22;4090;49.270;8.696;2023-10-09T13:36:17;21.40;99.90
8095;DHT22;4090;49.270;8.696;2023-10-09T13:39:07;21.50;99.90
8095;DHT22;4090;49.270;8.696;2023-10-09T13:42:04;21.50;99.90
8095;DHT22;4090;49.270;8.696;2023-10-09T13:44:47;21.50;99.90
8095;DHT22;4090;49.270;8.696;2023-10-09T13:47:29;21.50;99.90
8095;DHT22;4090;49.270;8.696;2023-10-09T13:50:13;21.50;99.90
8095;DHT22;4090;49.270;8.696;2023-10-09T13:52:55;21.60;99.90
8095;DHT22;4090;49.270;8.696;2023-10-09T13:55:37;21.60;99.90
8095;DHT22;4090;49.270;8.696;2023-10-09T13:58:25;21.70;99.90
8095;DHT22;4090;49.270;8.696;2023-10-09T14:01:08;21.70;99.90
8095;DHT22;4090;49.270;8.696;2023-10-09T14:03:50;21.70;99.90
8095;DHT22;4090;49.270;8.696;2023-10-09T14:06:33;21.70;99.90
8095;DHT22;4090;49.270;8.696;2023-10-09T14:09:17;21.80;99.90
8095;DHT22;4090;49.270;8.696;2023-10-09T14:12:12;21.70;99.90
8095;DHT22;4090;49.270;8.696;2023-10-09T14:15:01;21.80;99.90
8095;DHT22;4090;49.270;8.696;2023-10-09T14:17:44;21.70;99.90
8095;DHT22;4090;49.270;8.696;2023-10-09T14:20:27;21.70;99.90
8095;DHT22;4090;49.270;8.696;2023-10-09T14:23:12;21.70;99.90
8095;DHT22;4090;49.270;8.696;2023-10-09T14:26:01;21.70;99.90
8095;DHT22;4090;49.270;8.696;2023-10-09T14:28:47;21.60;99.90
8095;DHT22;4090;49.270;8.696;2023-10-09T14:31:30;21.60;99.90
8095;DHT22;4090;49.270;8.696;2023-10-09T14:34:12;21.70;99.90
8095;DHT22;4090;49.270;8.696;2023-10-09T14:36:54;21.60;99.90
8095;DHT22;4090;49.270;8.696;2023-10-09T14:39:36;21.60;99.90
8095;DHT22;4090;49.270;8.696;2023-10-09T14:42:18;21.60;99.90
8095;DHT22;4090;49.270;8.696;2023-10-09T14:45:01;21.70;99.90
8095;DHT22;4090;49.270;8.696;2023-10-09T14:47:49;21.70;99.90
8095;DHT22;4090;49.270;8.696;2023-10-09T14:50:33;21.80;99.90
8095;DHT22;4090;49.270;8.696;2023-10-09T14:53:20;21.70;99.90
8095;DHT22;4090;49.270;8.696;2023-10-09T14:56:02;21.80;99.90
8095;DHT22;4090;49.270;8.696;2023-10-09T14:58:49;21.70;99.90
8095;DHT22;4090;49.270;8.696;2023-10-09T15:01:32;21.70;99.90
8095;DHT22;4090;49.270;8.696;2023-10-09T15:04:15;21.70;99.90
8095;DHT22;4090;49.270;8.696;2023-10-09T15:06:58;21.60;99.90
8095;DHT22;4090;49.270;8.696;2023-10-09T15:09:39;21.60;99.90
8095;DHT22;4090;49.270;8.696;2023-10-09T15:12:22;21.60;99.90
8095;DHT22;4090;49.270;8.696;2023-10-09T15:15:05;21.60;99.90
8095;DHT22;4090;49.270;8.696;2023-10-09T15:17:52;21.60;99.90
8095;DHT22;4090;49.270;8.696;2023-10-09T15:20:36;21.60;99.90
8095;DHT22;4090;49.270;8.696;2023-10-09T15:23:18;21.60;99.90
8095;DHT22;4090;49.270;8.696;2023-10-09T15:26:01;21.70;99.90
8095;DHT22;4090;49.270;8.696;2023-10-09T15:28:46;21.70;99.90
8095;DHT22;4090;49.270;8.696;2023-10-09T15:31:30;21.60;99.90
8095;DHT22;4090;49.270;8.696;2023-10-09T15:34:12;21.60;99.90
8095;DHT22;4090;49.270;8.696;2023-10-09T15:36:56;21.60;99.90
8095;DHT22;4090;49.270;8.696;2023-10-09T15:39:38;21.60;99.90
8095;DHT22;4090;49.270;8.696;2023-10-09T15:42:20;21.70;99.90
8095;DHT22;4090;49.270;8.696;2023-10-09T15:45:03;21.60;99.90
8095;DHT22;4090;49.270;8.696;2023-10-09T15:47:47;21.60;99.90
8095;DHT22;4090;49.270;8.696;2023-10-09T15:50:31;21.60;99.90
8095;DHT22;4090;49.270;8.696;2023-10-09T15:53:16;21.60;99.90
8095;DHT22;4090;49.270;8.696;2023-10-09T15:56:01;21.50;99.90
8095;DHT22;4090;49.270;8.696;2023-10-09T15:58:43;21.50;99.90
8095;DHT22;4090;49.270;8.696;2023-10-09T16:01:25;21.50;99.90
8095;DHT22;4090;49.270;8.696;2023-10-09T16:04:07;21.50;99.90
8095;DHT22;4090;49.270;8.696;2023-10-09T16:06:51;21.50;99.90
8095;DHT22;4090;49.270;8.696;2023-10-09T16:09:34;21.50;99.90
8095;DHT22;4090;49.270;8.696;2023-10-09T16:12:19;21.40;99.90
8095;DHT22;4090;49.270;8.696;2023-10-09T16:15:01;21.40;99.90
8095;DHT22;4090;49.270;8.696;2023-10-09T16:17:46;21.40;99.90
8095;DHT22;4090;49.270;8.696;2023-10-09T16:20:30;21.40;99.90
8095;DHT22;4090;49.270;8.696;2023-10-09T16:23:13;21.30;99.90
8095;DHT22;4090;49.270;8.696;2023-10-09T16:25:56;21.30;99.90
8095;DHT22;4090;49.270;8.696;2023-10-09T16:28:40;21.30;99.90
8095;DHT22;4090;49.270;8.696;2023-10-09T16:31:23;21.20;99.90
8095;DHT22;4090;49.270;8.696;2023-10-09T16:34:05;21.20;99.90
8095;DHT22;4090;49.270;8.696;2023-10-09T16:36:48;21.20;99.90
8095;DHT22;4090;49.270;8.696;2023-10-09T16:39:32;21.10;99.90
8095;DHT22;4090;49.270;8.696;2023-10-09T16:42:20;21.10;99.90
8095;DHT22;4090;49.270;8.696;2023-10-09T16:45:04;21.10;99.90
8095;DHT22;4090;49.270;8.696;2023-10-09T16:47:50;21.10;99.90
8095;DHT22;4090;49.270;8.696;2023-10-09T16:50:35;21.00;99.90
8095;DHT22;4090;49.270;8.696;2023-10-09T16:53:17;21.00;99.90
8095;DHT22;4090;49.270;8.696;2023-10-09T16:56:00;21.00;99.90
8095;DHT22;4090;49.270;8.696;2023-10-09T16:58:51;20.90;99.90
8095;DHT22;4090;49.270;8.696;2023-10-09T17:01:33;20.90;99.90
8095;DHT22;4090;49.270;8.696;2023-10-09T17:04:17;20.90;99.90
8095;DHT22;4090;49.270;8.696;2023-10-09T17:07:00;20.90;99.90
8095;DHT22;4090;49.270;8.696;2023-10-09T17:09:45;20.80;99.90
8095;DHT22;4090;49.270;8.696;2023-10-09T17:12:28;20.80;99.90
8095;DHT22;4090;49.270;8.696;2023-10-09T17:15:13;20.70;99.90
8095;DHT22;4090;49.270;8.696;2023-10-09T17:17:55;20.70;99.90
8095;DHT22;4090;49.270;8.696;2023-10-09T17:20:40;20.70;99.90
8095;DHT22;4090;49.270;8.696;2023-10-09T17:23:29;20.60;99.90
8095;DHT22;4090;49.270;8.696;2023-10-09T17:26:13;20.60;99.90
8095;DHT22;4090;49.270;8.696;2023-10-09T17:28:58;20.60;99.90
8095;DHT22;4090;49.270;8.696;2023-10-09T17:31:42;20.50;99.90
8095;DHT22;4090;49.270;8.696;2023-10-09T17:34:24;20.50;99.90
8095;DHT22;4090;49.270;8.696;2023-10-09T17:37:07;20.50;99.90
8095;DHT22;4090;49.270;8.696;2023-10-09T17:39:49;20.40;99.90
8095;DHT22;4090;49.270;8.696;2023-10-09T17:42:31;20.40;99.90
8095;DHT22;4090;49.270;8.696;2023-10-09T17:45:12;20.30;99.90
8095;DHT22;4090;49.270;8.696;2023-10-09T17:48:04;20.30;99.90
8095;DHT22;4090;49.270;8.696;2023-10-09T17:50:49;20.30;99.90
8095;DHT22;4090;49.270;8.696;2023-10-09T17:53:31;20.20;99.90
8095;DHT22;4090;49.270;8.696;2023-10-09T17:56:13;20.20;99.90
8095;DHT22;4090;49.270;8.696;2023-10-09T17:58:54;20.20;99.90
8095;DHT22;4090;49.270;8.696;2023-10-09T18:01:39;20.10;99.90
8095;DHT22;4090;49.270;8.696;2023-10-09T18:04:22;20.10;99.90
8095;DHT22;4090;49.270;8.696;2023-10-09T18:07:04;20.10;99.90
8095;DHT22;4090;49.270;8.696;2023-10-09T18:09:46;20.10;99.90
8095;DHT22;4090;49.270;8.696;2023-10-09T18:12:32;20.10;99.90
8095;DHT22;4090;49.270;8.696;2023-10-09T18:15:14;20.00;99.90
8095;DHT22;4090;49.270;8.696;2023-10-09T18:18:01;20.00;99.90